Bodenham, United Kingdom
Current Conditions -  °F | °C
As of 10:20 AM on Saturday 20 Dec 2014 (Local Time) from EGBJ Reporting Station
Scattered Clouds Scattered Clouds  
Wind Chill: 43°   Ceiling: Unl
Heat Index: 48°   Visibility: 6mi
Dew Point: 37°   Wind: 12mph
Humidity: 66%   Direction: 260°W
Pressure: 30.3"   Gusts: NA
Location:  52.17°N, 2.68°W
Report Text: EGBJ 201020Z 26010KT 9999 FEW020 SCT026 09/03 Q1026
Loading
Personal Weather Stations






























Interactive Weather Map New forecast layout! Learn more

10-Day Weather Forecast

Advertisements
Track Severe Weather on mobile